Time;durP1;ratioP1;P1;durP2;ratioP2;P2;SDS_P1;SDS_P2;PMS_P1;PMS_P2;Temp;Humidity;BMP_temperature;BMP_pressure;BME280_temperature;BME280_humidity;BME280_pressure;Samples;Min_cycle;Max_cycle;Signal;HPM_P1;HPM_P2
2024/01/20 14:47:57;;;;;;;2.72;1.70;;;;;;;7.70;67.38;99596.44;2760332;22;1549507;-86
2024/01/20 14:50:24;;;;;;;2.47;1.00;;;;;;;7.58;63.23;99590.13;5105611;28;20048;-82
2024/01/20 14:52:51;;;;;;;2.72;1.42;;;;;;;7.76;68.09;99602.19;5127546;28;20077;-86
2024/01/20 14:55:17;;;;;;;3.38;1.63;;;;;;;8.09;70.34;99610.94;5089489;28;20034;-78
2024/01/20 14:57:43;;;;;;;2.22;1.20;;;;;;;8.56;69.74;99609.38;5080455;28;20032;-86
2024/01/20 15:00:12;;;;;;;2.10;1.23;;;;;;;8.31;62.55;99611.47;5049116;28;20556;-81
2024/01/20 15:02:37;;;;;;;;;;;;;;;8.12;58.95;99616.81;5060629;28;20028;-81
2024/01/20 15:05:05;;;;;;;4.20;0.98;;;;;;;7.91;58.52;99616.16;5076988;28;19908;-82
2024/01/20 15:07:32;;;;;;;9.35;3.00;;;;;;;7.95;66.50;99614.22;5077045;28;20448;-76
2024/01/20 15:09:58;;;;;;;11.43;3.58;;;;;;;8.00;65.03;99621.81;5076506;28;20024;-83
2024/01/20 15:12:26;;;;;;;10.98;3.00;;;;;;;8.01;65.08;99620.91;5064449;28;20053;-84
2024/01/20 15:14:55;;;;;;;9.52;2.40;;;;;;;8.09;63.98;99632.56;5077532;28;20114;-86
2024/01/20 15:17:21;;;;;;;16.95;2.97;;;;;;;7.94;62.26;99625.56;5060720;28;20119;-76
2024/01/20 15:19:47;;;;;;;23.05;4.95;;;;;;;7.88;62.67;99634.50;5077624;28;20024;-80
2024/01/20 15:22:13;;;;;;;19.42;4.55;;;;;;;7.88;66.37;99646.69;5060063;28;20495;-81
2024/01/20 15:24:39;;;;;;;21.10;4.68;;;;;;;7.86;64.63;99632.91;5059396;28;20031;-83
2024/01/20 15:27:06;;;;;;;31.10;6.63;;;;;;;7.76;63.40;99643.78;5060016;28;20100;-78
2024/01/20 15:29:32;;;;;;;36.20;6.88;;;;;;;7.77;64.76;99639.41;5077183;28;20020;-78
2024/01/20 15:31:57;;;;;;;40.58;8.25;;;;;;;7.77;64.04;99655.00;5039161;28;20407;-78
2024/01/20 15:34:23;;;;;;;35.80;6.25;;;;;;;7.96;69.29;99662.72;5055730;28;20028;-81
2024/01/20 15:36:50;;;;;;;25.35;5.88;;;;;;;7.96;70.14;99658.34;5039356;28;20024;-78
2024/01/20 15:39:15;;;;;;;17.17;3.60;;;;;;;8.81;76.19;99664.38;5074083;28;20471;-88
2024/01/20 15:41:41;;;;;;;14.82;3.42;;;;;;;9.82;74.84;99664.84;5055186;28;20063;-86
2024/01/20 15:44:08;;;;;;;19.55;5.22;;;;;;;9.95;70.54;99678.00;5062016;28;20076;-85
2024/01/20 15:46:35;;;;;;;24.08;8.43;;;;;;;9.64;64.05;99671.09;5062467;28;20043;-84
2024/01/20 15:49:01;;;;;;;16.52;6.22;;;;;;;9.32;61.66;99684.22;5059765;28;20131;-85
2024/01/20 15:51:28;;;;;;;10.40;3.78;;;;;;;9.06;63.06;99681.25;5079705;28;20055;-83
2024/01/20 15:53:54;;;;;;;5.45;2.63;;;;;;;9.01;63.59;99683.28;5059997;28;20483;-85
2024/01/20 15:56:19;;;;;;;14.38;3.38;;;;;;;9.00;66.74;99695.47;5060416;28;20085;-86
2024/01/20 15:58:48;;;;;;;7.53;2.80;;;;;;;8.92;65.24;99686.38;5080429;28;20391;-82
2024/01/20 16:01:16;;;;;;;8.50;2.45;;;;;;;8.83;64.03;99692.94;5094668;28;20095;-82
2024/01/20 16:03:44;;;;;;;9.05;1.58;;;;;;;8.70;62.95;99692.75;5076675;28;20067;-83
2024/01/20 16:06:16;;;;;;;3.42;1.40;;;;;;;8.59;61.20;99695.09;5058972;28;20470;-83
2024/01/20 16:08:41;;;;;;;3.67;1.58;;;;;;;8.49;60.94;99702.53;5074990;28;20032;-81
2024/01/20 16:11:08;;;;;;;3.78;0.90;;;;;;;8.41;60.49;99707.25;5075859;28;20032;-80
2024/01/20 16:13:37;;;;;;;3.08;1.08;;;;;;;8.32;60.05;99714.63;5058900;28;20024;-81
2024/01/20 16:16:04;;;;;;;8.50;2.83;;;;;;;8.34;65.66;99712.78;5074761;28;20059;-77
2024/01/20 16:18:30;;;;;;;6.17;2.07;;;;;;;8.26;64.12;99709.72;5074733;28;20115;-81
2024/01/20 16:20:59;;;;;;;6.60;2.08;;;;;;;8.25;62.02;99720.22;5058429;28;20520;-78
2024/01/20 16:23:24;;;;;;;;;;;;;;;8.19;60.77;99725.72;5058442;28;20029;-75
2024/01/20 16:25:50;;;;;;;3.97;1.73;;;;;;;8.07;59.83;99724.59;5092056;28;19915;-78
2024/01/20 16:28:15;;;;;;;7.28;1.85;;;;;;;8.07;63.02;99732.41;5069976;28;20182;-76
2024/01/20 16:30:42;;;;;;;5.50;1.60;;;;;;;7.97;60.87;99727.66;5054357;28;20536;-77
2024/01/20 16:33:08;;;;;;;3.90;1.23;;;;;;;7.95;59.72;99732.09;5038645;28;20119;-76
2024/01/20 16:35:40;;;;;;;5.38;1.73;;;;;;;7.91;59.54;99743.56;5022333;28;20453;-81
2024/01/20 16:38:06;;;;;;;2.17;1.30;;;;;;;7.79;58.42;99731.97;5055983;28;20045;-80
2024/01/20 16:40:31;;;;;;;3.15;1.42;;;;;;;7.76;57.99;99736.50;5039842;28;20028;-85
2024/01/20 16:42:58;;;;;;;2.05;1.30;;;;;;;7.71;57.73;99738.47;5047529;28;20033;-87
2024/01/20 16:45:25;;;;;;;2.25;1.25;;;;;;;7.65;57.69;99752.59;5069638;28;20544;-86
2024/01/20 16:47:50;;;;;;;3.47;1.30;;;;;;;7.66;57.48;99763.84;5023232;28;20056;-80
2024/01/20 16:50:16;;;;;;;2.42;1.30;;;;;;;7.57;57.06;99762.53;5022105;28;20036;-82
2024/01/20 16:52:42;;;;;;;3.88;1.40;;;;;;;7.49;56.33;99754.25;5026398;28;20132;-81
2024/01/20 16:55:07;;;;;;;2.67;1.20;;;;;;;7.51;55.60;99771.47;5030550;28;20442;-84
2024/01/20 16:57:33;;;;;;;1.95;1.23;;;;;;;7.47;55.52;99775.13;5037977;28;20036;-84
2024/01/20 16:59:58;;;;;;;2.17;1.50;;;;;;;7.43;55.67;99777.03;5055107;28;20074;-81
2024/01/20 17:02:24;;;;;;;3.35;1.73;;;;;;;7.41;55.30;99783.19;5038796;28;20028;-80
2024/01/20 17:04:49;;;;;;;2.30;1.40;;;;;;;7.33;55.11;99788.75;5038781;28;20068;-84
2024/01/20 17:07:15;;;;;;;3.40;1.58;;;;;;;7.36;54.83;99795.56;5038392;28;20039;-83
2024/01/20 17:09:41;;;;;;;2.67;1.55;;;;;;;7.32;54.84;99792.28;5023615;28;20036;-85
2024/01/20 17:12:08;;;;;;;2.72;1.75;;;;;;;7.22;54.07;99780.59;5042594;28;20044;-84
2024/01/20 17:14:33;;;;;;;3.63;2.20;;;;;;;7.28;54.01;99801.09;5038442;28;20123;-80
2024/01/20 17:16:59;;;;;;;6.25;2.72;;;;;;;7.20;53.84;99796.25;5054476;28;20036;-82
2024/01/20 17:19:30;;;;;;;5.13;2.63;;;;;;;7.38;62.54;99814.50;5021026;28;20070;-78
2024/01/20 17:21:56;;;;;;;5.85;2.95;;;;;;;7.36;59.02;99814.56;5022864;28;20495;-80
2024/01/20 17:24:23;;;;;;;6.70;2.92;;;;;;;7.30;57.59;99808.81;5020975;28;20052;-80
2024/01/20 17:26:48;;;;;;;6.43;2.90;;;;;;;7.31;57.30;99823.50;5038333;28;20466;-80
2024/01/20 17:29:14;;;;;;;5.97;3.22;;;;;;;7.28;56.11;99827.06;5037487;28;20123;-81
2024/01/20 17:31:39;;;;;;;5.50;3.10;;;;;;;7.22;55.15;99824.75;5053168;28;20037;-81
2024/01/20 17:34:05;;;;;;;8.27;3.85;;;;;;;7.19;55.09;99825.72;5054944;28;20082;-80
2024/01/20 17:36:31;;;;;;;7.30;3.28;;;;;;;7.14;54.65;99827.69;5056255;28;20034;-82
2024/01/20 17:38:56;;;;;;;6.38;3.28;;;;;;;7.12;54.21;99829.53;5055933;28;20048;-81
2024/01/20 17:41:22;;;;;;;6.20;3.50;;;;;;;7.10;54.11;99835.69;5044273;28;20054;-80
2024/01/20 17:43:47;;;;;;;4.70;3.38;;;;;;;7.07;53.77;99839.28;5081018;28;20032;-83
2024/01/20 17:46:13;;;;;;;6.50;3.58;;;;;;;7.04;53.79;99839.41;5086257;28;20040;-76
2024/01/20 17:48:38;;;;;;;7.03;3.95;;;;;;;7.01;54.51;99847.31;5081193;28;20060;-76
2024/01/20 17:51:04;;;;;;;8.40;3.58;;;;;;;7.00;54.10;99851.66;5064696;28;20040;-76
2024/01/20 17:53:33;;;;;;;7.18;4.07;;;;;;;6.97;53.94;99862.16;5061635;28;20555;-85
2024/01/20 17:56:00;;;;;;;6.03;3.95;;;;;;;6.94;53.82;99866.66;5062241;28;20488;-79
2024/01/20 17:58:26;;;;;;;5.50;3.30;;;;;;;6.87;53.68;99858.31;5052863;28;20094;-80
2024/01/20 18:00:51;;;;;;;4.60;3.25;;;;;;;6.84;53.34;99858.44;5052518;28;20484;-80
2024/01/20 18:03:22;;;;;;;5.75;3.65;;;;;;;6.86;53.34;99864.41;5069694;28;20035;-90
2024/01/20 18:05:47;;;;;;;5.65;3.55;;;;;;;6.83;53.24;99867.13;5056844;28;20111;-84
2024/01/20 18:08:13;;;;;;;5.03;3.55;;;;;;;6.79;53.10;99863.00;5060329;28;20052;-83
2024/01/20 18:10:38;;;;;;;6.03;3.30;;;;;;;6.79;53.19;99860.41;5054929;28;20033;-87
2024/01/20 18:13:05;;;;;;;5.22;2.92;;;;;;;6.72;53.56;99861.53;5040053;28;20028;-86
2024/01/20 18:15:31;;;;;;;5.05;3.47;;;;;;;6.77;53.49;99869.97;5036873;28;20041;-81
2024/01/20 18:17:57;;;;;;;5.82;3.38;;;;;;;6.73;53.22;99868.44;5071724;28;20044;-86
2024/01/20 18:20:23;;;;;;;6.80;3.47;;;;;;;6.71;52.83;99876.28;5036847;28;20043;-83
2024/01/20 18:22:49;;;;;;;4.38;3.08;;;;;;;6.65;53.29;99858.38;5062031;28;20009;-88
2024/01/20 18:25:15;;;;;;;5.80;3.53;;;;;;;6.72;52.82;99884.91;5087384;28;20434;-88
2024/01/20 18:27:41;;;;;;;4.50;3.55;;;;;;;6.72;52.68;99888.38;5100754;28;20024;-88
2024/01/20 18:30:09;;;;;;;7.72;4.03;;;;;;;6.72;52.65;99883.16;5069508;28;20027;-88
2024/01/20 18:32:35;;;;;;;5.33;3.37;;;;;;;6.67;53.02;99885.97;5088078;28;20028;-88
2024/01/20 18:35:01;;;;;;;6.25;3.70;;;;;;;6.71;52.66;99891.84;5086150;28;20341;-89
2024/01/20 18:37:27;;;;;;;7.03;4.30;;;;;;;6.65;52.48;99882.56;5090479;28;20035;-90
2024/01/20 18:39:52;;;;;;;6.70;4.07;;;;;;;6.69;52.74;99894.50;5073911;28;20036;-89
2024/01/20 18:42:19;;;;;;;7.35;4.63;;;;;;;6.64;53.00;99893.00;5085603;28;20072;-88
2024/01/20 18:44:47;;;;;;;8.02;4.70;;;;;;;6.70;53.02;99906.59;5085955;28;20028;-91
2024/01/20 18:47:14;;;;;;;7.90;5.03;;;;;;;6.64;52.52;99895.59;5089848;28;20058;-84
2024/01/20 18:49:41;;;;;;;7.38;5.20;;;;;;;6.69;52.61;99904.06;5084672;28;20008;-91
2024/01/20 18:52:06;;;;;;;6.85;4.32;;;;;;;6.69;52.78;99923.06;5183019;22;20059;-91
2024/01/20 18:54:33;;;;;;;7.38;4.90;;;;;;;6.65;52.50;99918.06;5080127;28;20050;-89
2024/01/20 18:56:58;;;;;;;8.90;5.45;;;;;;;6.61;52.18;99909.56;5054016;28;20056;-87
2024/01/20 18:59:24;;;;;;;7.30;4.95;;;;;;;6.68;52.60;99921.34;5140840;22;20052;-85
2024/01/20 19:01:50;;;;;;;8.75;5.88;;;;;;;6.68;52.73;99925.72;5058586;28;20051;-87
2024/01/20 19:04:16;;;;;;;7.47;5.20;;;;;;;6.68;52.68;99931.75;5041057;28;20032;-87
2024/01/20 19:06:41;;;;;;;8.27;5.13;;;;;;;6.63;52.42;99925.91;5023906;28;20051;-85
2024/01/20 19:09:07;;;;;;;7.63;5.13;;;;;;;6.67;52.81;99932.66;5044083;28;20641;-87
2024/01/20 19:11:33;;;;;;;8.00;5.38;;;;;;;6.68;52.69;99943.88;5046930;28;20520;-88
2024/01/20 19:14:00;;;;;;;8.48;5.70;;;;;;;6.62;52.21;99931.97;5032024;28;20021;-91
2024/01/20 19:16:25;;;;;;;8.73;6.03;;;;;;;6.62;52.31;99934.56;5038409;28;20423;-90
2024/01/20 19:18:51;;;;;;;8.00;5.72;;;;;;;6.65;52.34;99944.00;5036986;28;20077;-83
2024/01/20 19:21:16;;;;;;;8.68;6.18;;;;;;;6.65;52.48;99954.38;5040610;28;20075;-85
2024/01/20 19:23:43;;;;;;;8.02;5.72;;;;;;;6.61;51.84;99956.25;5045336;28;20031;-92
2024/01/20 19:26:10;;;;;;;11.27;6.32;;;;;;;6.55;51.82;99950.44;5053944;28;20036;-89
2024/01/20 19:28:38;;;;;;;7.63;5.57;;;;;;;6.57;52.25;99957.28;5047513;28;20043;-88
2024/01/20 19:31:04;;;;;;;8.75;6.38;;;;;;;6.52;52.21;99952.28;5029207;28;20041;-88
2024/01/20 19:33:30;;;;;;;9.45;6.32;;;;;;;6.51;52.16;99952.34;5029735;28;20065;-91
2024/01/20 19:35:55;;;;;;;8.93;6.75;;;;;;;6.50;52.20;99950.66;5031556;28;20044;-89
2024/01/20 19:38:20;;;;;;;9.23;6.18;;;;;;;6.54;51.84;99965.19;5103731;23;20052;-90
2024/01/20 19:40:46;;;;;;;10.50;6.97;;;;;;;6.52;52.22;99957.47;5040616;28;20044;-85
2024/01/20 19:43:13;;;;;;;8.88;6.28;;;;;;;6.49;52.50;99956.75;5041521;28;20049;-89
2024/01/20 19:45:38;;;;;;;10.38;6.88;;;;;;;6.51;52.37;99967.91;5061534;28;20032;-90
2024/01/20 19:48:05;;;;;;;9.65;6.22;;;;;;;6.44;52.26;99959.53;5044951;28;20032;-91
2024/01/20 19:50:31;;;;;;;7.22;5.47;;;;;;;6.39;51.97;99973.56;5060449;28;20036;-92
2024/01/20 19:52:59;;;;;;;10.05;5.85;;;;;;;6.34;52.08;99964.22;5040947;28;20036;-81
2024/01/20 19:55:25;;;;;;;6.18;3.97;;;;;;;6.50;61.09;99959.28;5027013;28;20040;-82
2024/01/20 19:57:51;;;;;;;9.13;5.32;;;;;;;6.63;64.39;99964.81;5056339;28;20488;-83
2024/01/20 20:00:19;;;;;;;7.40;3.20;;;;;;;7.16;73.10;99968.69;5051448;28;20037;-85
2024/01/20 20:02:47;;;;;;;6.65;3.65;;;;;;;7.29;72.08;99965.56;5061003;28;20064;-87
2024/01/20 20:05:13;;;;;;;7.20;4.78;;;;;;;7.17;67.06;99954.78;5022569;28;20063;-84
2024/01/20 20:07:39;;;;;;;6.05;4.32;;;;;;;7.14;64.13;99951.50;5022521;28;20111;-80
2024/01/20 20:10:05;;;;;;;9.55;5.07;;;;;;;7.07;62.19;99956.13;5038007;28;20040;-83
2024/01/20 20:12:30;;;;;;;8.48;4.63;;;;;;;7.07;61.29;99956.94;5022245;28;20085;-82
2024/01/20 20:14:56;;;;;;;8.15;4.88;;;;;;;7.01;60.24;99952.00;5056794;28;20071;-86
2024/01/20 20:17:22;;;;;;;8.43;5.53;;;;;;;6.93;59.32;99954.09;5022235;28;20094;-87
2024/01/20 20:19:48;;;;;;;8.00;5.35;;;;;;;6.91;59.08;99958.50;5038387;28;20045;-87
2024/01/20 20:22:14;;;;;;;5.97;4.68;;;;;;;6.84;58.94;99952.72;5056073;28;20025;-84
2024/01/20 20:24:39;;;;;;;7.20;5.13;;;;;;;6.86;58.16;99963.03;5039765;28;20518;-84
2024/01/20 20:27:05;;;;;;;8.43;5.13;;;;;;;6.78;57.71;99947.75;5045158;28;20519;-80
2024/01/20 20:29:31;;;;;;;6.82;4.72;;;;;;;6.76;57.89;99959.97;5033736;28;20049;-83
2024/01/20 20:31:59;;;;;;;6.88;4.88;;;;;;;6.70;57.29;99947.25;5031253;28;20040;-81
2024/01/20 20:34:24;;;;;;;6.37;4.63;;;;;;;6.72;57.04;99955.84;5050033;28;20103;-86
2024/01/20 20:36:50;;;;;;;6.55;4.78;;;;;;;6.70;56.60;99953.31;5041673;28;20479;-81
2024/01/20 20:39:16;;;;;;;7.60;4.88;;;;;;;6.63;57.03;99943.22;5038517;28;20049;-85
2024/01/20 20:41:42;;;;;;;5.80;4.18;;;;;;;6.65;56.20;99954.38;5059223;28;20041;-85
2024/01/20 20:44:08;;;;;;;6.30;4.28;;;;;;;6.63;55.95;99957.03;5043102;28;20500;-87
2024/01/20 20:46:34;;;;;;;6.47;4.60;;;;;;;6.61;55.60;99961.44;5021088;28;20476;-87
2024/01/20 20:49:02;;;;;;;7.00;4.50;;;;;;;6.59;55.25;99949.44;5054649;28;20043;-88
2024/01/20 20:51:27;;;;;;;6.57;4.55;;;;;;;6.55;54.86;99956.50;4999349;28;20098;-86
2024/01/20 20:53:53;;;;;;;7.22;4.80;;;;;;;6.54;55.13;99949.63;4995222;28;20041;-88
2024/01/20 20:56:18;;;;;;;4.80;3.90;;;;;;;6.53;55.06;99945.31;5002614;28;20053;-85
2024/01/20 20:58:44;;;;;;;5.80;4.38;;;;;;;6.46;54.80;99947.31;4998411;28;20041;-88
2024/01/20 21:01:09;;;;;;;6.10;4.32;;;;;;;6.44;54.63;99943.97;5003555;28;20037;-86
2024/01/20 21:03:35;;;;;;;7.80;4.95;;;;;;;6.49;55.01;99952.41;5012959;28;20041;-85
2024/01/20 21:06:01;;;;;;;8.40;5.05;;;;;;;6.48;54.98;99952.47;5002195;28;20528;-89
2024/01/20 21:08:27;;;;;;;7.75;4.97;;;;;;;6.43;54.84;99946.63;5017225;28;20120;-91
2024/01/20 21:10:52;;;;;;;6.47;4.47;;;;;;;6.46;54.31;99955.13;5005322;28;20057;-88
2024/01/20 21:13:18;;;;;;;7.63;5.15;;;;;;;6.45;54.38;99957.75;4982068;28;20029;-88
2024/01/20 21:15:43;;;;;;;7.78;4.93;;;;;;;6.43;54.49;99952.63;4996209;28;20037;-83
2024/01/20 21:18:09;;;;;;;7.95;5.47;;;;;;;6.44;54.02;99948.31;4996286;28;20091;-87
2024/01/20 21:20:34;;;;;;;7.35;5.00;;;;;;;6.43;54.29;99949.22;4996077;28;20034;-86
2024/01/20 21:23:00;;;;;;;5.68;4.40;;;;;;;6.39;54.31;99950.22;4996155;28;20038;-85
2024/01/20 21:25:25;;;;;;;7.28;4.68;;;;;;;6.43;54.04;99965.59;4996242;28;20041;-88
2024/01/20 21:27:51;;;;;;;6.82;4.50;;;;;;;6.42;53.79;99957.88;4997541;28;20057;-88
2024/01/20 21:30:17;;;;;;;5.78;4.30;;;;;;;6.40;53.80;99957.94;5000209;28;20053;-84
2024/01/20 21:32:42;;;;;;;6.88;4.68;;;;;;;6.65;67.03;99952.63;5020123;28;20034;-87
2024/01/20 21:35:08;;;;;;;10.07;4.53;;;;;;;6.82;66.39;99954.53;4978438;28;20534;-82
2024/01/20 21:37:34;;;;;;;6.00;4.07;;;;;;;6.81;62.72;99963.22;4978786;28;20034;-88
2024/01/20 21:39:59;;;;;;;5.68;4.30;;;;;;;6.74;61.50;99943.63;4978403;28;20053;-85
2024/01/20 21:42:25;;;;;;;7.20;4.32;;;;;;;6.75;59.60;99967.81;4980872;28;20064;-87
2024/01/20 21:44:56;;;;;;;6.00;3.40;;;;;;;6.62;57.67;99944.97;5016336;28;20033;-89
2024/01/20 21:47:22;;;;;;;12.40;4.60;;;;;;;6.61;57.29;99952.81;4999475;28;20057;-87
2024/01/20 21:49:47;;;;;;;6.13;3.88;;;;;;;6.53;57.17;99953.09;5014188;28;20077;-86
2024/01/20 21:52:13;;;;;;;7.13;3.50;;;;;;;6.52;56.09;99960.06;5002567;28;20397;-87
2024/01/20 21:54:38;;;;;;;5.05;3.00;;;;;;;6.52;55.05;99964.41;4996696;28;20034;-89
2024/01/20 21:57:04;;;;;;;5.30;2.80;;;;;;;6.43;54.67;99951.81;5001115;28;20048;-88
2024/01/20 21:59:29;;;;;;;4.05;2.65;;;;;;;6.39;53.62;99945.03;5019669;28;20034;-87
2024/01/20 22:01:55;;;;;;;4.97;2.90;;;;;;;6.42;53.52;99961.34;5002356;28;20581;-87
2024/01/20 22:04:21;;;;;;;5.78;2.17;;;;;;;6.32;52.77;99940.09;5002619;28;20030;-86
2024/01/20 22:06:46;;;;;;;5.35;2.47;;;;;;;6.39;52.28;99956.28;5018923;28;20083;-88
2024/01/20 22:09:12;;;;;;;4.70;2.50;;;;;;;6.37;52.26;99957.22;5019543;28;20034;-84
2024/01/20 22:11:37;;;;;;;3.22;2.38;;;;;;;6.27;51.47;99949.81;5001777;28;20041;-85
2024/01/20 22:14:03;;;;;;;4.00;1.95;;;;;;;6.30;50.71;99954.03;4985220;28;20045;-86
2024/01/20 22:16:28;;;;;;;3.22;2.08;;;;;;;6.28;50.95;99961.03;5001979;28;20026;-85
2024/01/20 22:18:54;;;;;;;4.43;2.25;;;;;;;6.22;50.06;99945.72;4985020;28;20049;-85
2024/01/20 22:21:19;;;;;;;3.92;1.92;;;;;;;6.22;50.20;99950.91;5001261;28;20026;-85
2024/01/20 22:23:45;;;;;;;3.30;2.22;;;;;;;6.20;49.84;99948.38;4985146;28;20022;-85
2024/01/20 22:26:17;;;;;;;5.05;2.22;;;;;;;6.19;49.53;99948.44;5018289;28;20057;-86
2024/01/20 22:28:45;;;;;;;4.00;2.00;;;;;;;6.17;49.17;99948.50;5001006;28;20042;-86
2024/01/20 22:31:11;;;;;;;;;;;;;;;6.17;49.16;99945.91;5001986;28;20040;-85
2024/01/20 22:33:36;;;;;;;3.65;2.05;;;;;;;6.09;49.66;99941.00;5001456;28;19913;-87
2024/01/20 22:36:02;;;;;;;4.55;2.10;;;;;;;6.10;49.02;99957.41;5001933;28;20035;-85
2024/01/20 22:38:28;;;;;;;4.15;2.13;;;;;;;6.08;48.68;99946.25;5001069;28;20068;-85
2024/01/20 22:40:56;;;;;;;3.60;2.00;;;;;;;6.03;48.58;99941.25;4985967;28;20405;-85
2024/01/20 22:43:22;;;;;;;4.70;2.20;;;;;;;6.07;48.38;99948.00;5017084;28;20038;-84
2024/01/20 22:45:47;;;;;;;3.45;2.25;;;;;;;6.03;48.19;99943.84;4985608;28;20028;-86
2024/01/20 22:48:13;;;;;;;4.10;2.10;;;;;;;6.02;48.28;99947.31;5002169;28;20038;-84
2024/01/20 22:50:38;;;;;;;3.38;1.98;;;;;;;5.99;48.15;99952.63;5017603;28;20490;-84
2024/01/20 22:53:05;;;;;;;3.42;1.90;;;;;;;5.99;47.81;99944.84;4985463;28;20485;-83
2024/01/20 22:55:31;;;;;;;4.80;2.50;;;;;;;5.92;48.17;99953.72;5022015;28;20025;-84
2024/01/20 22:57:57;;;;;;;3.63;1.92;;;;;;;5.90;47.97;99942.56;5035031;28;20036;-84
2024/01/20 23:00:25;;;;;;;4.18;1.80;;;;;;;5.88;48.13;99941.78;5002192;28;20041;-86
2024/01/20 23:02:51;;;;;;;;;;;;;;;5.92;47.71;99953.72;5004107;28;20478;-86
2024/01/20 23:05:17;;;;;;;3.28;1.85;;;;;;;5.88;48.09;99947.81;5027458;28;19941;-87
2024/01/20 23:07:43;;;;;;;3.00;1.80;;;;;;;5.80;47.85;99942.06;5007615;28;20052;-86
2024/01/20 23:10:09;;;;;;;2.80;1.92;;;;;;;5.85;47.98;99942.75;5002223;28;20038;-88
2024/01/20 23:12:35;;;;;;;3.03;1.70;;;;;;;5.84;48.18;99951.41;4999425;28;20152;-84
2024/01/20 23:15:01;;;;;;;2.75;1.83;;;;;;;5.78;47.62;99933.50;5014322;28;20033;-84
2024/01/20 23:17:27;;;;;;;4.90;2.10;;;;;;;5.83;47.87;99938.53;4982477;28;20071;-85
2024/01/20 23:19:52;;;;;;;4.50;1.95;;;;;;;5.80;47.96;99936.88;5008913;28;20030;-84
2024/01/20 23:22:18;;;;;;;3.10;1.85;;;;;;;5.79;47.52;99942.97;5004995;28;20033;-85
2024/01/20 23:24:43;;;;;;;3.70;1.98;;;;;;;5.78;47.96;99949.88;4982016;28;20084;-86
2024/01/20 23:27:09;;;;;;;6.95;2.05;;;;;;;5.77;47.80;99947.34;4997365;28;20485;-87
2024/01/20 23:29:35;;;;;;;3.40;1.92;;;;;;;5.72;47.55;99944.09;5014469;28;20036;-84
2024/01/20 23:32:01;;;;;;;3.22;1.70;;;;;;;5.73;47.59;99946.63;5013758;28;20026;-86
2024/01/20 23:34:27;;;;;;;3.83;2.05;;;;;;;5.71;47.28;99947.59;4981390;28;20030;-84
2024/01/20 23:36:52;;;;;;;4.38;1.90;;;;;;;5.62;47.40;99934.06;4997263;28;20030;-82
2024/01/20 23:39:18;;;;;;;4.40;1.98;;;;;;;5.65;47.19;99951.25;5016573;28;20050;-85
2024/01/20 23:41:43;;;;;;;2.53;1.35;;;;;;;5.61;47.18;99945.34;4983713;28;20405;-85
2024/01/20 23:44:10;;;;;;;3.47;1.95;;;;;;;5.55;47.15;99939.53;4998861;28;20103;-80
2024/01/20 23:46:35;;;;;;;3.17;1.90;;;;;;;5.55;47.33;99937.81;5013752;28;20485;-86
2024/01/20 23:49:01;;;;;;;4.05;1.80;;;;;;;5.58;46.78;99944.59;4997309;28;20036;-84
2024/01/20 23:51:26;;;;;;;2.28;1.52;;;;;;;5.55;46.91;99948.16;4980491;28;20096;-84
2024/01/20 23:53:52;;;;;;;3.38;2.00;;;;;;;5.56;46.70;99952.41;5014559;28;20029;-86
2024/01/20 23:56:17;;;;;;;3.25;1.77;;;;;;;5.55;46.88;99947.31;5029638;28;20037;-84
2024/01/20 23:58:43;;;;;;;2.97;1.83;;;;;;;5.54;47.16;99948.22;5011789;28;20536;-85
